Latest Weather Observations for Combienbar

IDV60801

Issued at 10:52 am EST Tuesday 19 June 2018 (issued every 10 minutes, with the page automatically refreshed every 10 minutes)

About weather observations | Map of weather stations | Latest weather observations for VIC | Other Formats
Station Details ID: 084143 Name: COMBIENBAR AWS Lat: -37.34 Lon: 149.02 Height: 640.0 m
Data from the previous 72 hours. | See also: Recent months at Combienbar
Date/Time
EST
Temp
°C
App
Temp
°C
Dew
Point
°C
Rel
Hum
%
Delta-T
°C
Wind Press
QNH
hPa
Press
MSL
hPa
Rain since
9am
mm
Dir  Spd
km/h
Gust
km/h
Spd
kts
Gust
kts
19/10:30am 6.6 5.7 6.2 97 0.2 CALM 0 0 0 0 1028.3 1028.7 0.4
19/10:00am 6.4 5.5 6.0 97 0.2 CALM 0 2 0 1 1028.2 1028.6 0.2
19/09:30am 5.9 4.5 5.3 96 0.3 SW 2 4 1 2 1028.1 1028.5 0.2
19/09:00am 5.7 4.2 5.1 96 0.3 SW 2 6 1 3 1027.9 1028.3 24.8
19/08:30am 5.6 4.4 4.6 93 0.4 CALM 0 2 0 1 1027.5 1028.0 24.8
19/08:00am 5.7 4.1 4.7 93 0.4 SW 2 6 1 3 1027.1 1027.5 24.4
19/07:30am 5.6 4.1 4.9 95 0.3 SW 2 4 1 2 1027.1 1027.5 24.0
19/07:00am 5.4 3.9 4.8 96 0.3 SSW 2 7 1 4 1026.8 1027.2 23.6
19/06:30am 5.3 3.7 4.7 96 0.3 SW 2 4 1 2 1026.7 1027.1 23.0
19/06:00am 5.4 3.9 5.0 97 0.2 SSW 2 6 1 3 1026.4 1026.8 22.4
19/05:30am 5.5 4.0 5.1 97 0.2 SW 2 6 1 3 1026.0 1026.4 21.6
19/05:00am 5.6 3.8 5.2 97 0.2 SW 4 6 2 3 1025.7 1026.1 21.0
19/04:30am 5.6 3.8 5.2 97 0.2 SW 4 7 2 4 1025.5 1025.9 20.2
19/04:00am 5.5 3.6 5.1 97 0.2 SSW 4 7 2 4 1025.6 1026.0 19.4
19/03:30am 5.5 3.6 5.1 97 0.2 SW 4 7 2 4 1025.5 1025.9 18.6
19/03:00am 5.5 3.6 5.1 97 0.2 SW 4 9 2 5 1025.5 1025.9 17.6
19/02:30am 5.4 3.5 5.1 98 0.1 SW 4 6 2 3 1025.4 1025.8 16.8
19/02:00am 5.4 3.5 5.1 98 0.1 SSW 4 6 2 3 1025.4 1025.8 15.8
19/01:30am 5.2 3.3 4.9 98 0.1 SSW 4 6 2 3 1025.3 1025.7 14.8
19/01:00am 5.1 3.2 4.7 97 0.2 SSW 4 9 2 5 1025.2 1025.6 13.6
19/12:30am 5.0 2.7 4.6 97 0.2 SW 6 13 3 7 1025.2 1025.6 12.6
19/12:00am 5.7 3.5 5.4 98 0.1 SW 6 13 3 7 1025.0 1025.4 11.4
 
Date/Time
EST
Temp
°C
App
Temp
°C
Dew
Point
°C
Rel
Hum
%
Delta-T
°C
Wind Press
QNH
hPa
Press
MSL
hPa
Rain since
9am
mm
Dir  Spd
km/h
Gust
km/h
Spd
kts
Gust
kts
18/11:30pm 5.7 3.3 5.4 98 0.1 SW 7 13 4 7 1024.9 1025.3 10.2
18/11:00pm 5.6 3.2 5.3 98 0.1 SSW 7 13 4 7 1024.9 1025.3 9.4
18/10:30pm 5.5 3.1 5.2 98 0.1 SSW 7 13 4 7 1024.9 1025.3 9.2
18/10:00pm 5.6 2.8 5.3 98 0.1 SW 9 17 5 9 1024.4 1024.8 9.0
18/09:30pm 5.6 3.2 5.3 98 0.1 SSW 7 13 4 7 1024.4 1024.8 8.8
18/09:00pm 5.5 3.3 5.2 98 0.1 SSW 6 11 3 6 1024.1 1024.5 8.6
18/08:30pm 5.3 2.8 5.0 98 0.1 SW 7 13 4 7 1024.0 1024.4 8.4
18/08:00pm 5.0 2.1 4.6 97 0.2 SSW 9 19 5 10 1024.0 1024.4 8.4
18/07:30pm 4.8 3.2 4.4 97 0.2 S 2 9 1 5 1023.7 1024.1 8.2
18/07:00pm 4.6 2.0 4.2 97 0.2 SW 7 13 4 7 1023.3 1023.6 8.0
18/06:30pm 4.7 1.3 4.1 96 0.3 SW 11 19 6 10 1023.0 1023.3 8.0
18/06:00pm 5.0 1.3 4.4 96 0.3 SW 13 20 7 11 1022.7 1023.1 7.8
18/05:30pm 5.1 1.7 4.2 94 0.4 SSW 11 22 6 12 1022.2 1022.6 7.6
18/05:00pm 5.3 1.9 3.8 90 0.7 SSW 11 20 6 11 1022.0 1022.3 7.6
18/04:30pm 5.3 1.5 4.1 92 0.5 SW 13 24 7 13 1021.9 1022.2 7.4
18/04:00pm 5.4 1.8 5.0 97 0.2 SSW 13 20 7 11 1022.0 1022.3 7.2
18/03:30pm 5.6 1.7 5.3 98 0.1 SW 15 26 8 14 1021.8 1022.1 7.0
18/03:00pm 5.7 1.8 5.4 98 0.1 SSW 15 24 8 13 1021.5 1021.8 6.8
18/02:30pm 5.9 2.4 5.6 98 0.1 SW 13 22 7 12 1021.3 1021.6 6.4
18/02:00pm 6.3 2.9 6.0 98 0.1 SW 13 24 7 13 1020.9 1021.3 6.2
18/01:30pm 6.3 2.5 6.0 98 0.1 SW 15 24 8 13 1020.9 1021.3 5.8
18/01:00pm 6.5 2.4 6.2 98 0.1 SSW 17 30 9 16 1020.9 1021.3 5.4
18/12:30pm 6.6 2.5 6.3 98 0.1 SW 17 28 9 15 1020.7 1021.0 5.0
18/12:00pm 6.6 4.0 6.3 98 0.1 SSW 9 22 5 12 1020.8 1021.2 4.4
18/11:30am 6.6 4.0 6.3 98 0.1 SW 9 17 5 9 1020.9 1021.3 3.8
18/11:00am 6.9 4.8 6.6 98 0.1 SSW 7 11 4 6 1021.0 1021.4 3.0
18/10:30am 7.0 4.1 6.7 98 0.1 SW 11 20 6 11 1020.9 1021.3 2.4
18/10:00am 6.8 3.9 6.5 98 0.1 SW 11 17 6 9 1020.8 1021.2 1.6
18/09:30am 6.6 4.0 6.3 98 0.1 SSW 9 17 5 9 1020.6 1020.9 0.8
18/09:00am 6.4 4.2 6.1 98 0.1 SW 7 17 4 9 1020.3 1020.6 21.4
18/08:30am 6.5 3.5 6.2 98 0.1 SSW 11 22 6 12 1020.0 1020.3 20.4
18/08:00am 6.4 4.2 6.1 98 0.1 SW 7 15 4 8 1019.7 1020.0 19.6
18/07:30am 6.6 4.0 6.3 98 0.1 SW 9 24 5 13 1019.3 1019.6 18.6
18/07:00am 6.6 4.0 6.3 98 0.1 SW 9 15 5 8 1018.7 1019.0 17.4
18/06:30am 6.6 4.0 6.3 98 0.1 SSW 9 19 5 10 1018.6 1018.9 16.0
18/06:00am 6.6 4.0 6.3 98 0.1 SSW 9 19 5 10 1018.1 1018.3 14.6
18/05:30am 6.7 3.4 6.4 98 0.1 SW 13 19 7 10 1017.9 1018.1 12.8
18/05:00am 6.5 3.2 6.2 98 0.1 SW 13 22 7 12 1017.2 1017.5 10.8
18/04:30am 6.6 4.0 6.3 98 0.1 SSW 9 15 5 8 1016.9 1017.2 8.6
18/04:00am 6.5 4.3 6.2 98 0.1 SSW 7 13 4 7 1017.0 1017.3 6.0
18/03:30am 6.4 3.4 6.0 97 0.2 SW 11 19 6 10 1016.7 1016.9 3.8
18/03:00am 6.3 3.7 5.9 97 0.2 SW 9 17 5 9 1016.3 1016.5 1.8
18/02:30am 6.2 3.5 5.8 97 0.2 SW 9 17 5 9 1016.4 1016.6 0.6
18/02:00am 5.3 3.0 4.7 96 0.3 SW 6 11 3 6 1016.5 1016.7 0.2
18/01:30am 5.7 2.5 5.0 95 0.3 SSW 11 17 6 9 1016.0 1016.3 0.0
18/01:00am 5.3 2.7 4.4 94 0.4 SW 7 13 4 7 1015.8 1016.1 0.0
18/12:30am 5.9 2.8 5.5 97 0.2 SW 11 20 6 11 1015.4 1015.6 0.0
18/12:00am 5.7 3.3 5.1 96 0.3 SW 7 19 4 10 1015.5 1015.8 0.0
 
Date/Time
EST
Temp
°C
App
Temp
°C
Dew
Point
°C
Rel
Hum
%
Delta-T
°C
Wind Press
QNH
hPa
Press
MSL
hPa
Rain since
9am
mm
Dir  Spd
km/h
Gust
km/h
Spd
kts
Gust
kts
17/11:30pm 6.1 3.0 5.7 97 0.2 SSW 11 19 6 10 1015.0 1015.2 0.0
17/11:00pm 6.2 3.1 5.6 96 0.3 SW 11 22 6 12 1015.1 1015.3 0.0
17/10:30pm 6.1 2.6 5.5 96 0.3 SW 13 22 7 12 1014.7 1014.9 0.0
17/10:00pm 5.8 2.6 5.1 95 0.3 SW 11 22 6 12 1014.6 1014.8 0.0
17/09:30pm 5.3 2.7 4.3 93 0.4 SW 7 24 4 13 1014.4 1014.7 0.0
17/09:00pm 5.0 0.8 4.0 93 0.4 SW 15 26 8 14 1013.9 1014.1 0.0
17/08:30pm 5.4 1.4 4.8 96 0.3 SW 15 24 8 13 1013.9 1014.1 0.0
17/08:00pm 5.1 2.2 4.5 96 0.3 SW 9 15 5 8 1013.7 1013.9 0.0
17/07:30pm 5.4 2.5 4.8 96 0.3 SW 9 17 5 9 1012.4 1012.6 0.0
17/07:00pm 5.4 3.1 4.8 96 0.3 SSW 6 11 3 6 1011.9 1012.1 0.0
17/06:30pm 5.9 3.7 5.5 97 0.2 SSW 6 13 3 7 1011.6 1011.8 0.0
17/06:00pm 5.4 2.9 4.8 96 0.3 SSW 7 11 4 6 1011.2 1011.3 0.0
17/05:30pm 4.8 1.4 4.1 95 0.3 SW 11 24 6 13 1009.8 1009.9 0.0
17/05:00pm 4.0 0.4 3.1 94 0.4 WSW 11 33 6 18 1009.4 1009.6 0.0
17/04:30pm 3.9 0.3 2.7 92 0.5 SW 11 19 6 10 1009.0 1009.2 0.0
17/04:00pm 3.5 -0.2 2.5 93 0.4 SW 11 26 6 14 1008.8 1009.0 0.0
17/03:30pm 3.5 0.2 2.6 94 0.4 SW 9 17 5 9 1008.4 1008.5 0.0
17/03:00pm 4.4 1.2 3.1 91 0.6 SW 9 19 5 10 1008.0 1008.1 0.0
17/02:30pm 6.1 3.3 3.3 82 1.2 SW 7 13 4 7 1007.5 1007.7 0.0
17/02:00pm 5.1 1.6 3.6 90 0.7 SW 11 17 6 9 1007.1 1007.2 0.0
17/01:30pm 6.2 3.3 2.8 79 1.5 SW 7 19 4 10 1007.1 1007.2 0.0
17/01:00pm 5.8 2.1 2.3 78 1.5 SW 11 17 6 9 1007.0 1007.1 0.0
17/12:30pm 6.4 3.7 3.9 84 1.1 SW 7 15 4 8 1007.0 1007.1 0.0
17/12:00pm 6.4 3.7 2.9 78 1.5 SW 6 13 3 7 1007.0 1007.1 0.0
17/11:30am 6.1 3.2 2.6 78 1.5 SW 7 19 4 10 1007.0 1007.1 0.0
17/11:00am 6.8 3.8 1.7 70 2.2 SW 7 19 4 10 1006.9 1007.0 0.0
17/10:30am 6.6 3.1 1.3 69 2.2 SW 9 20 5 11 1007.0 1007.1 0.0
17/10:00am 6.3 3.1 1.0 69 2.2 SW 7 24 4 13 1006.9 1007.0 0.0
17/09:30am 6.1 2.9 0.9 69 2.1 SW 7 17 4 9 1006.9 1007.0 0.0
17/09:00am 6.5 3.2 0.0 63 2.6 SW 7 20 4 11 1006.5 1006.6 0.0
17/08:30am 6.3 3.0 -0.9 60 2.8 WSW 6 19 3 10 1006.3 1006.4 0.0
17/08:00am 6.0 2.5 -1.4 59 2.9 WNW 7 17 4 9 1005.8 1005.9 0.0
17/07:30am 5.5 1.9 -1.9 59 2.8 WSW 7 15 4 8 1005.7 1005.8 0.0
17/07:00am 5.7 1.7 -1.9 58 2.9 WNW 9 28 5 15 1005.1 1005.2 0.0
17/06:30am 5.8 1.1 -2.0 57 3.0 WNW 13 26 7 14 1004.8 1004.8 0.0
17/06:00am 5.7 1.3 -2.1 57 3.0 W 11 37 6 20 1004.9 1005.0 0.0
17/05:30am 5.1 1.7 -2.2 59 2.7 SW 6 24 3 13 1005.1 1005.2 0.0
17/05:00am 5.5 1.5 -2.6 56 3.0 WSW 9 32 5 17 1005.2 1005.3 0.0
17/04:30am 5.3 1.2 -2.8 56 3.0 WSW 9 22 5 12 1005.5 1005.6 0.0
17/04:00am 5.1 0.3 -2.7 57 2.9 W 13 43 7 23 1005.7 1005.8 0.0
17/03:30am 5.3 0.5 -2.8 56 3.0 W 13 37 7 20 1005.9 1006.0 0.0
17/03:00am 5.0 0.9 -2.8 57 2.9 WNW 9 30 5 16 1006.2 1006.3 0.0
17/02:30am 5.3 0.8 -3.0 55 3.1 W 11 32 6 17 1006.4 1006.5 0.0
17/02:00am 4.9 1.2 -3.1 56 2.9 NW 7 20 4 11 1006.8 1006.9 0.0
17/01:30am 4.9 1.4 -2.9 57 2.9 SW 6 22 3 12 1006.8 1006.9 0.0
17/01:00am 4.9 1.2 -3.1 56 2.9 NW 7 24 4 13 1006.8 1006.9 0.0
17/12:30am 5.2 1.1 -2.8 56 3.0 W 9 22 5 12 1007.1 1007.2 0.0
17/12:00am 5.1 1.4 -2.9 56 3.0 NW 7 22 4 12 1007.3 1007.4 0.0
 
Date/Time
EST
Temp
°C
App
Temp
°C
Dew
Point
°C
Rel
Hum
%
Delta-T
°C
Wind Press
QNH
hPa
Press
MSL
hPa
Rain since
9am
mm
Dir  Spd
km/h
Gust
km/h
Spd
kts
Gust
kts
16/11:30pm 5.1 1.0 -2.9 56 3.0 W 9 28 5 15 1007.5 1007.7 0.0
16/11:00pm 5.1 1.4 -2.7 57 2.9 N 7 22 4 12 1007.9 1008.0 0.0
16/10:30pm 5.3 1.6 -2.8 56 3.0 WSW 7 19 4 10 1008.1 1008.2 0.0
16/10:00pm 5.4 1.9 -2.9 55 3.1 W 6 19 3 10 1008.2 1008.3 0.0
16/09:30pm 5.5 1.8 -3.1 54 3.2 W 7 22 4 12 1008.2 1008.3 0.0
16/09:00pm 5.7 2.0 -2.9 54 3.2 W 7 17 4 9 1008.5 1008.6 0.0
16/08:30pm 5.9 2.3 -2.4 55 3.1 WSW 7 19 4 10 1008.8 1009.0 0.0
16/08:00pm 5.9 2.5 -2.2 56 3.1 W 6 22 3 12 1008.8 1009.0 0.0
16/07:30pm 6.1 2.5 -2.0 56 3.1 WSW 7 24 4 13 1008.9 1009.1 0.0
16/07:00pm 6.4 2.4 -2.5 53 3.4 W 9 24 5 13 1008.6 1008.7 0.0
16/06:30pm 6.4 2.1 -1.7 56 3.1 W 11 28 6 15 1008.3 1008.4 0.0
16/06:00pm 6.7 2.3 -2.2 53 3.4 WSW 11 35 6 19 1008.0 1008.1 0.0
16/05:30pm 6.7 2.3 -2.2 53 3.4 W 11 26 6 14 1008.1 1008.2 0.0
16/05:00pm 6.7 3.1 -2.2 53 3.4 WSW 7 22 4 12 1008.1 1008.2 0.0
16/04:30pm 7.3 3.7 -2.4 50 3.7 WSW 7 24 4 13 1008.1 1008.2 0.0
16/04:00pm 7.6 4.0 -2.1 50 3.8 WSW 7 24 4 13 1007.9 1008.0 0.0
16/03:30pm 8.6 4.6 -2.3 46 4.3 WSW 9 24 5 13 1008.0 1008.1 0.0
16/03:00pm 8.9 5.2 -2.7 44 4.5 WSW 7 17 4 9 1007.9 1008.0 0.0
16/02:30pm 9.8 6.2 -1.9 44 4.7 WSW 7 17 4 9 1007.7 1007.9 0.0
16/02:00pm 9.7 6.3 -1.9 44 4.6 WSW 6 17 3 9 1007.9 1008.0 0.0
16/01:30pm 9.0 4.9 -2.9 43 4.6 WSW 9 28 5 15 1007.6 1007.8 0.0
16/01:00pm 9.4 5.3 -3.2 41 4.9 WSW 9 24 5 13 1007.9 1008.0 0.0
16/12:30pm 9.1 4.2 -3.1 42 4.7 WSW 13 33 7 18 1008.1 1008.2 0.0
16/12:00pm 8.8 3.5 -3.7 41 4.7 W 15 37 8 20 1008.5 1008.6 0.0
16/11:30am 8.3 3.8 -3.2 44 4.4 WSW 11 30 6 16 1008.8 1009.0 0.0
16/11:00am 7.9 2.6 -3.6 44 4.3 W 15 39 8 21 1009.3 1009.5 0.0

Other Formats:

Comma delimited format used in spreadsheet applications
http://www.bom.gov.au/fwo/IDV60801/IDV60801.94914.axf

JavaScript Object Notation format (JSON) in row-major order
http://www.bom.gov.au/fwo/IDV60801/IDV60801.94914.json